Search for airport 
image banner adimage banner adimage banner ad
image banner ad

KNZY - North Island Nas /Halsey Field/

Located in San Diego, United States

ICAO - NZY, IATA - NZY

Data provided by Airmate  

General information

Coordinates: N32°41'54" W117°12'47"
Elevation is 26 feet MSL.
Magnetic variation is 11° East
View others Airports in California

Operational data

Special qualification required
Current time UTC:
Current local time:
Weather
METAR: KNZY 211252Z 02003KT 10SM OVC012 17/14 A2994 RMK AO2 SLP139 T01720139
TAF: TAF KNZY 2107/2207 28006KT 9999 OVC012 QNH2988INS TEMPO 2107/2111 6000 BR OVC008 FM211100 28008KT 6000 BR OVC008 QNH2989INS FM211800 28013G18KT 9999 SCT008 SCT012 QNH2988INS FM220300 28008KT 8000 BR BKN008 OVC012 QNH2989INS AUTOMATED SENSOR METWATCH 2107 TIL 2114 T17/2114Z T23/2121Z FS30173
View NOTAMs / SUP AIP / TFR affecting this airport [VIEW]
Communications frequencies: [VIEW]

Runways:

RWY identifierQFULength (ft)Width (ft)SurfaceLDA (ft)
11121°7500200OTHER
29301°7500200OTHER
18195°8000200OTHER
3615°8000200OTHER

Airport contact information

Address: San Diego United States

Satellite view of KNZY